Time;durP1;ratioP1;P1;durP2;ratioP2;P2;SDS_P1;SDS_P2;PMS_P1;PMS_P2;Temp;Humidity;BMP_temperature;BMP_pressure;BME280_temperature;BME280_humidity;BME280_pressure;Samples;Min_cycle;Max_cycle;Signal;HPM_P1;HPM_P2
2023/05/15 00:01:32;;;;;;;11.67;10.53;;;16.70;80.20;;;;;;5080157;28;20461;-74
2023/05/15 00:03:58;;;;;;;11.13;10.13;;;16.70;80.60;;;;;;5093636;28;20534;-75
2023/05/15 00:06:26;;;;;;;12.03;10.93;;;16.70;80.60;;;;;;5093060;28;20488;-74
2023/05/15 00:08:53;;;;;;;13.03;11.83;;;16.60;80.80;;;;;;5093488;28;20469;-73
2023/05/15 00:11:22;;;;;;;13.70;11.33;;;16.60;81.20;;;;;;5093464;28;20814;-74
2023/05/15 00:13:51;;;;;;;14.73;12.40;;;16.60;81.50;;;;;;5093768;28;20841;-77
2023/05/15 00:16:22;;;;;;;13.30;12.07;;;16.50;81.50;;;;;;5092052;28;20553;-76
2023/05/15 00:18:49;;;;;;;12.97;11.87;;;16.60;81.60;;;;;;5093368;28;20540;-75
2023/05/15 00:21:17;;;;;;;12.73;11.63;;;16.60;81.60;;;;;;5092748;28;20993;-77
2023/05/15 00:23:43;;;;;;;14.70;13.40;;;16.50;81.50;;;;;;5093264;28;20517;-77
2023/05/15 00:26:14;;;;;;;14.27;12.87;;;16.50;81.10;;;;;;5093177;28;21032;-77
2023/05/15 00:28:41;;;;;;;13.13;11.87;;;16.50;81.20;;;;;;5091850;28;20553;-76
2023/05/15 00:31:11;;;;;;;12.93;11.73;;;16.50;81.40;;;;;;5092511;28;20496;-76
2023/05/15 00:33:38;;;;;;;15.50;12.60;;;16.50;81.80;;;;;;5092751;28;20473;-76
2023/05/15 00:36:07;;;;;;;12.90;11.60;;;16.50;81.90;;;;;;5093246;28;20462;-76
2023/05/15 00:38:34;;;;;;;13.07;11.77;;;16.50;82.00;;;;;;5092170;28;20462;-75
2023/05/15 00:41:11;;;;;;;14.00;12.80;;;16.40;82.00;;;;;;5092621;28;20474;-76
2023/05/15 00:43:51;;;;;;;13.07;11.80;;;16.40;81.90;;;;;;5092656;28;20461;-75
2023/05/15 00:46:22;;;;;;;12.90;11.70;;;16.40;82.10;;;;;;5093234;28;20970;-75
2023/05/15 00:48:50;;;;;;;12.93;11.77;;;16.40;82.30;;;;;;5092970;28;20462;-75
2023/05/15 00:51:17;;;;;;;12.87;11.77;;;16.40;82.50;;;;;;5091463;28;20595;-76
2023/05/15 00:53:45;;;;;;;13.27;12.07;;;16.30;82.80;;;;;;5092969;28;20583;-75
2023/05/15 00:56:12;;;;;;;13.40;12.10;;;16.30;82.90;;;;;;5092325;28;20474;-75
2023/05/15 00:58:41;;;;;;;12.60;11.30;;;16.30;83.00;;;;;;5092392;28;20478;-75
2023/05/15 01:01:08;;;;;;;14.77;13.30;;;16.30;83.10;;;;;;5084054;28;20472;-76
2023/05/15 01:03:36;;;;;;;13.93;12.70;;;16.30;83.40;;;;;;5090027;28;20861;-76
2023/05/15 01:06:16;;;;;;;12.17;11.17;;;16.30;83.40;;;;;;5092137;28;20493;-75
2023/05/15 01:08:46;;;;;;;14.27;13.13;;;16.30;83.50;;;;;;5083404;28;20480;-75
2023/05/15 01:11:14;;;;;;;13.30;12.13;;;16.20;83.50;;;;;;5092525;28;20461;-76
2023/05/15 01:13:41;;;;;;;11.87;10.70;;;16.20;83.70;;;;;;5096477;28;20515;-76
2023/05/15 01:16:11;;;;;;;12.43;11.43;;;16.20;83.70;;;;;;5095953;28;20465;-76
2023/05/15 01:18:41;;;;;;;12.30;11.20;;;16.20;84.00;;;;;;5095340;28;20466;-75
2023/05/15 01:21:36;;;;;;;14.77;13.30;;;16.20;84.20;;;;;;5096361;28;20469;-76
2023/05/15 01:24:30;;;;;;;11.53;10.63;;;16.30;84.30;;;;;;5088628;28;20465;-75
2023/05/15 01:27:24;;;;;;;15.40;13.80;;;16.20;84.50;;;;;;5096023;28;20465;-75
2023/05/15 01:30:06;;;;;;;13.20;11.90;;;16.20;84.70;;;;;;5093544;28;20510;-75
2023/05/15 01:32:43;;;;;;;13.97;12.67;;;16.10;84.90;;;;;;5100225;28;20846;-75
2023/05/15 01:35:16;;;;;;;14.40;13.00;;;16.10;85.30;;;;;;5095005;28;20457;-75
2023/05/15 01:37:49;;;;;;;12.63;11.53;;;16.10;85.40;;;;;;5095925;28;20483;-76
2023/05/15 01:40:19;;;;;;;13.13;11.90;;;16.10;85.70;;;;;;5095594;28;20943;-75
2023/05/15 01:42:54;;;;;;;12.17;11.07;;;16.10;86.00;;;;;;5094786;28;20918;-75
2023/05/15 01:45:23;;;;;;;13.93;12.63;;;16.10;86.10;;;;;;5096017;28;20453;-75
2023/05/15 01:47:52;;;;;;;13.60;12.40;;;16.10;86.10;;;;;;5095820;28;21035;-75
2023/05/15 01:50:21;;;;;;;13.47;12.37;;;16.00;86.10;;;;;;5095011;28;20489;-76
2023/05/15 01:52:51;;;;;;;12.63;11.43;;;16.00;86.40;;;;;;5096078;28;20532;-74
2023/05/15 01:55:20;;;;;;;14.53;13.20;;;16.00;86.40;;;;;;5094502;28;20790;-75
2023/05/15 01:57:50;;;;;;;13.30;11.47;;;15.90;86.40;;;;;;5098265;28;20531;-77
2023/05/15 02:00:22;;;;;;;12.00;11.07;;;15.90;86.50;;;;;;5096824;28;20469;-76
2023/05/15 02:02:50;;;;;;;11.30;10.40;;;15.90;86.70;;;;;;5095459;28;20970;-75
2023/05/15 02:05:17;;;;;;;14.10;12.90;;;15.90;86.70;;;;;;5095501;28;20789;-76
2023/05/15 02:07:46;;;;;;;12.73;11.53;;;15.90;86.70;;;;;;5095826;28;20534;-76
2023/05/15 02:10:14;;;;;;;14.67;13.30;;;15.80;86.80;;;;;;5095148;28;20531;-76
2023/05/15 02:12:42;;;;;;;14.93;13.53;;;15.80;87.00;;;;;;5095607;28;20469;-75
2023/05/15 02:15:12;;;;;;;14.07;12.73;;;15.70;87.20;;;;;;5094836;28;20469;-76
2023/05/15 02:17:39;;;;;;;14.37;13.03;;;15.70;87.50;;;;;;5095027;28;20594;-75
2023/05/15 02:20:08;;;;;;;14.33;12.93;;;15.70;87.80;;;;;;5095079;28;20869;-74
2023/05/15 02:22:36;;;;;;;12.33;11.33;;;15.70;87.90;;;;;;5095349;28;20472;-76
2023/05/15 02:25:03;;;;;;;13.50;12.30;;;15.70;87.70;;;;;;5094523;28;20469;-76
2023/05/15 02:27:41;;;;;;;13.70;12.47;;;15.70;87.60;;;;;;5093319;28;20496;-74
2023/05/15 02:30:25;;;;;;;13.77;12.57;;;15.70;87.50;;;;;;5095131;28;20523;-76
2023/05/15 02:33:00;;;;;;;13.73;12.43;;;15.70;87.80;;;;;;5081997;28;20519;-75
2023/05/15 02:35:34;;;;;;;13.80;12.37;;;15.60;87.80;;;;;;5094981;28;20798;-75
2023/05/15 02:38:08;;;;;;;13.07;12.07;;;15.60;88.20;;;;;;5094788;28;20462;-76
2023/05/15 02:40:37;;;;;;;13.83;12.50;;;15.60;88.50;;;;;;5095132;28;20931;-77
2023/05/15 02:43:07;;;;;;;13.70;12.47;;;15.60;88.60;;;;;;5094091;28;20473;-75
2023/05/15 02:45:36;;;;;;;13.47;12.27;;;15.60;88.70;;;;;;5093370;28;20526;-75
2023/05/15 02:48:06;;;;;;;14.00;12.67;;;15.60;88.60;;;;;;5094186;28;20465;-75
2023/05/15 02:50:33;;;;;;;14.70;13.00;;;15.60;88.80;;;;;;5095063;28;20848;-75
2023/05/15 02:53:03;;;;;;;15.53;13.67;;;15.60;88.70;;;;;;5094714;28;20461;-76
2023/05/15 02:55:30;;;;;;;14.80;13.50;;;15.60;88.70;;;;;;5094736;28;20967;-75
2023/05/15 02:58:05;;;;;;;15.30;13.33;;;15.60;88.70;;;;;;5094288;28;20899;-75
2023/05/15 03:00:32;;;;;;;14.70;13.20;;;15.70;88.70;;;;;;5095078;28;20476;-75
2023/05/15 03:03:02;;;;;;;16.40;14.90;;;15.70;88.70;;;;;;5093724;28;20477;-76
2023/05/15 03:05:39;;;;;;;15.13;12.33;;;15.60;89.00;;;;;;5094481;28;20799;-76
2023/05/15 03:08:06;;;;;;;15.60;14.17;;;15.60;89.10;;;;;;5094082;28;20457;-76
2023/05/15 03:10:33;;;;;;;14.73;13.43;;;15.60;89.50;;;;;;5094767;28;20465;-75
2023/05/15 03:13:00;;;;;;;16.37;14.17;;;15.60;89.70;;;;;;5093989;28;20488;-76
2023/05/15 03:15:27;;;;;;;13.33;12.10;;;15.60;89.80;;;;;;5094109;28;20485;-76
2023/05/15 03:18:09;;;;;;;14.60;13.17;;;15.60;90.00;;;;;;5085150;28;20462;-76
2023/05/15 03:20:37;;;;;;;13.80;12.47;;;15.60;89.90;;;;;;5106698;28;20461;-76
2023/05/15 03:23:04;;;;;;;12.47;11.50;;;15.60;90.00;;;;;;5093982;28;20534;-75
2023/05/15 03:25:32;;;;;;;13.53;12.30;;;15.60;90.10;;;;;;5093875;28;20489;-75
2023/05/15 03:27:59;;;;;;;13.67;12.47;;;15.50;90.10;;;;;;5088696;28;20527;-75
2023/05/15 03:30:31;;;;;;;13.70;12.30;;;15.50;90.10;;;;;;5094014;28;20530;-75
2023/05/15 03:32:58;;;;;;;13.20;12.00;;;15.50;90.20;;;;;;5093241;28;20466;-75
2023/05/15 03:35:25;;;;;;;17.33;12.53;;;15.50;90.30;;;;;;5093026;28;20470;-76
2023/05/15 03:37:54;;;;;;;15.00;12.63;;;15.50;90.40;;;;;;5093547;28;20544;-75
2023/05/15 03:40:21;;;;;;;15.40;13.90;;;15.50;90.60;;;;;;5094032;28;20457;-76
2023/05/15 03:42:52;;;;;;;14.10;12.80;;;15.50;90.60;;;;;;5093791;28;20526;-75
2023/05/15 03:45:19;;;;;;;15.63;14.07;;;15.60;90.80;;;;;;5093483;28;20797;-76
2023/05/15 03:47:50;;;;;;;15.57;14.17;;;15.50;90.90;;;;;;5094642;28;20559;-76
2023/05/15 03:50:18;;;;;;;14.70;13.30;;;15.40;90.90;;;;;;5098058;28;20590;-75
2023/05/15 03:52:45;;;;;;;15.03;13.60;;;15.40;91.20;;;;;;5093988;28;20545;-75
2023/05/15 03:55:13;;;;;;;14.43;13.13;;;15.30;91.20;;;;;;5093410;28;20473;-76
2023/05/15 03:57:41;;;;;;;15.27;13.97;;;15.20;91.20;;;;;;5094118;28;20797;-77
2023/05/15 04:00:09;;;;;;;14.47;13.27;;;15.20;91.20;;;;;;5093490;28;20967;-77
2023/05/15 04:02:39;;;;;;;13.50;12.40;;;15.20;91.20;;;;;;5093956;28;20518;-77
2023/05/15 04:05:12;;;;;;;14.57;13.37;;;15.20;91.20;;;;;;5092835;28;20489;-75
2023/05/15 04:07:39;;;;;;;12.60;11.60;;;15.10;91.20;;;;;;5094333;28;20461;-75
2023/05/15 04:10:08;;;;;;;14.20;12.80;;;15.10;91.30;;;;;;5092793;28;20465;-76
2023/05/15 04:12:36;;;;;;;14.20;12.47;;;15.00;91.40;;;;;;5093548;28;20811;-76
2023/05/15 04:15:17;;;;;;;13.70;12.50;;;15.00;91.40;;;;;;5092472;28;20810;-76
2023/05/15 04:17:45;;;;;;;13.17;12.07;;;15.00;91.40;;;;;;5093823;28;20808;-75
2023/05/15 04:20:14;;;;;;;14.47;13.00;;;15.00;91.40;;;;;;5093399;28;20950;-75
2023/05/15 04:22:41;;;;;;;12.00;11.10;;;15.00;91.40;;;;;;5094241;28;20523;-76
2023/05/15 04:25:10;;;;;;;14.33;13.07;;;15.00;91.40;;;;;;5094110;28;20461;-77
2023/05/15 04:27:41;;;;;;;13.90;12.80;;;15.10;91.50;;;;;;5094304;28;20586;-76
2023/05/15 04:30:27;;;;;;;12.60;11.47;;;15.00;91.60;;;;;;5091664;28;20820;-76
2023/05/15 04:32:55;;;;;;;14.37;13.03;;;15.10;91.60;;;;;;5094950;28;20465;-75
2023/05/15 04:35:22;;;;;;;13.60;12.40;;;15.10;91.60;;;;;;5095374;28;20512;-76
2023/05/15 04:37:49;;;;;;;28.73;14.37;;;15.10;91.70;;;;;;5095314;28;20496;-75
2023/05/15 04:40:26;;;;;;;14.03;12.63;;;15.10;91.60;;;;;;5091358;28;20538;-74
2023/05/15 04:42:54;;;;;;;14.00;12.77;;;15.10;91.60;;;;;;5094267;28;20787;-74
2023/05/15 04:45:23;;;;;;;13.40;12.30;;;15.20;91.70;;;;;;5093427;28;20474;-76
2023/05/15 04:47:50;;;;;;;13.67;12.30;;;15.20;91.80;;;;;;5094955;28;20541;-75
2023/05/15 04:50:17;;;;;;;12.03;10.93;;;15.20;91.70;;;;;;5091150;28;20461;-75
2023/05/15 04:52:44;;;;;;;15.23;12.80;;;15.20;91.70;;;;;;5094002;28;20461;-76
2023/05/15 04:55:11;;;;;;;14.17;12.83;;;15.20;91.70;;;;;;5094012;28;20478;-75
2023/05/15 04:57:38;;;;;;;12.47;11.47;;;15.30;91.70;;;;;;5092900;28;20473;-74
2023/05/15 05:00:11;;;;;;;13.27;12.13;;;15.30;91.60;;;;;;5092517;28;20465;-75
2023/05/15 05:02:38;;;;;;;12.80;11.60;;;15.30;92.00;;;;;;5091969;28;20469;-74
2023/05/15 05:05:20;;;;;;;13.43;12.43;;;15.40;91.60;;;;;;5096910;28;20836;-76
2023/05/15 05:07:50;;;;;;;12.13;10.93;;;15.40;91.50;;;;;;5081094;28;20457;-75
2023/05/15 05:10:17;;;;;;;11.87;10.77;;;15.40;91.50;;;;;;5097616;28;20518;-76
2023/05/15 05:12:47;;;;;;;11.40;10.40;;;15.50;91.50;;;;;;5087176;28;20526;-77
2023/05/15 05:15:16;;;;;;;12.00;10.90;;;15.50;91.30;;;;;;5115586;28;20468;-75
2023/05/15 05:17:43;;;;;;;10.47;9.57;;;15.60;91.40;;;;;;5103923;28;20477;-77
2023/05/15 05:20:11;;;;;;;10.47;9.67;;;15.70;91.30;;;;;;5104296;28;20589;-75
2023/05/15 05:22:39;;;;;;;12.20;11.00;;;15.70;91.20;;;;;;5098298;28;20493;-76
2023/05/15 05:25:08;;;;;;;10.63;9.73;;;15.70;91.10;;;;;;5103118;28;20467;-74
2023/05/15 05:27:35;;;;;;;9.53;8.73;;;15.80;91.00;;;;;;5106444;28;20468;-77
2023/05/15 05:30:02;;;;;;;10.13;9.33;;;15.80;91.00;;;;;;5103347;28;20472;-74
2023/05/15 05:32:30;;;;;;;10.70;9.80;;;15.90;91.30;;;;;;5102966;28;20461;-76
2023/05/15 05:34:57;;;;;;;11.73;9.40;;;16.00;90.90;;;;;;5102121;28;20477;-76
2023/05/15 05:37:24;;;;;;;10.83;9.93;;;16.10;91.00;;;;;;5106172;28;20488;-76
2023/05/15 05:39:51;;;;;;;10.87;9.83;;;16.10;91.00;;;;;;5107660;28;20489;-75
2023/05/15 05:42:18;;;;;;;9.50;8.70;;;16.20;91.10;;;;;;5109516;28;20462;-76
2023/05/15 05:44:48;;;;;;;10.03;9.00;;;16.30;91.10;;;;;;5108904;28;20469;-75
2023/05/15 05:47:15;;;;;;;9.40;8.60;;;16.40;91.10;;;;;;5103520;28;20454;-76
2023/05/15 05:49:46;;;;;;;9.20;8.50;;;16.50;91.20;;;;;;5099441;28;20570;-76
2023/05/15 05:52:14;;;;;;;20.10;9.03;;;16.50;91.30;;;;;;5101089;28;20491;-76
2023/05/15 05:54:41;;;;;;;9.83;8.90;;;16.60;91.10;;;;;;5099072;28;20461;-76
2023/05/15 05:57:09;;;;;;;9.90;9.10;;;16.70;90.50;;;;;;5104995;28;20939;-76
2023/05/15 05:59:36;;;;;;;7.70;7.10;;;16.80;90.50;;;;;;5110839;28;20457;-76
2023/05/15 06:02:04;;;;;;;8.63;7.93;;;16.90;90.30;;;;;;5111946;28;20488;-76
2023/05/15 06:04:31;;;;;;;9.40;8.60;;;16.90;90.00;;;;;;5108770;28;20498;-76
2023/05/15 06:07:00;;;;;;;10.73;8.17;;;17.00;90.10;;;;;;5101678;28;20565;-77
2023/05/15 06:09:27;;;;;;;10.53;9.73;;;17.00;90.10;;;;;;5109262;28;20473;-76
2023/05/15 06:11:53;;;;;;;9.73;8.73;;;17.10;90.20;;;;;;5109535;28;20461;-75
2023/05/15 06:14:20;;;;;;;9.33;8.53;;;17.20;90.30;;;;;;5104237;28;20458;-76
2023/05/15 06:16:47;;;;;;;10.47;8.67;;;17.30;90.50;;;;;;5097155;28;20812;-76
2023/05/15 06:19:14;;;;;;;8.27;7.57;;;17.30;90.50;;;;;;5096673;28;20461;-77
2023/05/15 06:21:41;;;;;;;11.63;10.57;;;17.50;90.50;;;;;;5096402;28;20526;-77
2023/05/15 06:24:09;;;;;;;9.90;9.10;;;17.50;90.50;;;;;;5097100;28;21009;-76
2023/05/15 06:26:36;;;;;;;9.70;8.80;;;17.60;90.40;;;;;;5102043;28;20508;-77
2023/05/15 06:29:03;;;;;;;13.30;11.30;;;17.60;90.30;;;;;;5100571;28;20457;-77
2023/05/15 06:31:30;;;;;;;13.10;11.90;;;17.80;90.00;;;;;;5098481;28;20474;-75
2023/05/15 06:33:57;;;;;;;12.70;11.37;;;17.80;88.90;;;;;;5097591;28;20473;-76
2023/05/15 06:36:24;;;;;;;15.13;10.80;;;17.90;88.60;;;;;;5097285;28;20469;-77
2023/05/15 06:38:51;;;;;;;12.30;11.17;;;18.00;88.20;;;;;;5096740;28;20477;-75
2023/05/15 06:41:20;;;;;;;11.83;10.60;;;18.00;87.80;;;;;;5096385;28;20492;-76
2023/05/15 06:43:47;;;;;;;11.47;10.40;;;18.10;87.70;;;;;;5095525;28;20465;-77
2023/05/15 06:46:17;;;;;;;12.37;11.27;;;18.10;87.70;;;;;;5095922;28;20485;-76
2023/05/15 06:48:44;;;;;;;12.93;10.87;;;18.20;87.70;;;;;;5094953;28;20489;-75
2023/05/15 06:51:11;;;;;;;11.70;10.60;;;18.30;87.50;;;;;;5095717;28;20805;-74
2023/05/15 06:53:38;;;;;;;11.90;10.80;;;18.30;87.10;;;;;;5095395;28;20815;-77
2023/05/15 06:56:05;;;;;;;10.97;10.07;;;18.40;87.70;;;;;;5094990;28;20546;-77
2023/05/15 06:58:34;;;;;;;12.17;10.83;;;18.50;86.90;;;;;;5095990;28;20461;-77
2023/05/15 07:01:02;;;;;;;10.17;9.33;;;18.50;86.90;;;;;;5094905;28;20461;-76
2023/05/15 07:03:29;;;;;;;10.87;9.87;;;18.50;86.60;;;;;;5095499;28;20473;-75
2023/05/15 07:05:56;;;;;;;10.73;9.63;;;18.60;86.50;;;;;;5094590;28;20469;-77
2023/05/15 07:08:23;;;;;;;9.07;8.37;;;18.60;86.10;;;;;;5095714;28;20919;-76
2023/05/15 07:10:51;;;;;;;10.20;9.30;;;18.70;85.90;;;;;;5094498;28;21028;-77
2023/05/15 07:13:21;;;;;;;12.97;10.50;;;18.80;86.10;;;;;;5095025;28;20856;-76
2023/05/15 07:15:49;;;;;;;10.07;8.67;;;18.90;85.60;;;;;;5094474;28;20930;-76
2023/05/15 07:18:16;;;;;;;9.07;8.27;;;19.00;84.80;;;;;;5095091;28;20507;-76
2023/05/15 07:20:43;;;;;;;8.83;8.13;;;19.00;84.00;;;;;;5095392;28;20469;-76
2023/05/15 07:23:11;;;;;;;8.17;7.40;;;19.10;83.40;;;;;;5094137;28;20492;-75
2023/05/15 07:25:38;;;;;;;7.97;7.20;;;19.10;83.30;;;;;;5093647;28;20820;-75
2023/05/15 07:28:05;;;;;;;9.07;8.27;;;19.10;83.20;;;;;;5093847;28;20861;-75
2023/05/15 07:30:32;;;;;;;8.33;7.53;;;19.10;82.70;;;;;;5094200;28;20481;-76
2023/05/15 07:33:02;;;;;;;7.70;7.00;;;19.20;82.50;;;;;;5093709;28;20818;-76
2023/05/15 07:35:30;;;;;;;8.63;7.80;;;19.20;82.10;;;;;;5093993;28;20508;-77
2023/05/15 07:37:57;;;;;;;9.70;8.40;;;19.20;81.70;;;;;;5093591;28;20469;-75
2023/05/15 07:40:24;;;;;;;8.60;8.00;;;19.20;81.50;;;;;;5094084;28;20461;-75
2023/05/15 07:42:51;;;;;;;9.13;7.97;;;19.30;81.50;;;;;;5083424;28;20468;-77
2023/05/15 07:45:21;;;;;;;7.83;7.10;;;19.30;80.70;;;;;;5109258;28;20947;-77
2023/05/15 07:47:49;;;;;;;7.90;7.17;;;19.40;80.20;;;;;;5094062;28;20480;-75
2023/05/15 07:50:21;;;;;;;10.93;6.87;;;19.40;79.80;;;;;;5092983;28;20462;-75
2023/05/15 07:52:48;;;;;;;7.13;6.53;;;19.40;78.80;;;;;;5094479;28;20480;-76
2023/05/15 07:55:15;;;;;;;8.80;8.00;;;19.40;78.80;;;;;;5093160;28;21008;-76
2023/05/15 07:57:42;;;;;;;7.07;6.47;;;19.40;79.00;;;;;;5094727;28;20526;-76
2023/05/15 08:00:12;;;;;;;7.83;7.13;;;19.50;79.40;;;;;;5093576;28;20530;-76
2023/05/15 08:02:39;;;;;;;8.40;7.30;;;19.50;79.70;;;;;;5094516;28;20480;-76
2023/05/15 08:05:07;;;;;;;7.60;6.80;;;19.60;79.70;;;;;;5092999;28;20508;-76
2023/05/15 08:07:36;;;;;;;7.17;6.60;;;19.60;79.80;;;;;;5094148;28;20481;-75
2023/05/15 08:10:04;;;;;;;7.50;6.90;;;19.60;79.80;;;;;;5093629;28;20493;-76
2023/05/15 08:12:34;;;;;;;7.80;7.03;;;19.60;79.70;;;;;;5093679;28;20472;-76
2023/05/15 08:15:05;;;;;;;5.90;5.50;;;19.60;79.90;;;;;;5092312;28;20539;-76
2023/05/15 08:17:32;;;;;;;7.70;6.57;;;19.60;80.20;;;;;;5095414;28;20461;-76
2023/05/15 08:19:59;;;;;;;9.10;7.87;;;19.70;80.30;;;;;;5093419;28;20457;-77
2023/05/15 08:22:29;;;;;;;7.10;6.40;;;19.70;80.30;;;;;;5094194;28;20518;-75
2023/05/15 08:24:58;;;;;;;6.77;6.17;;;19.70;80.10;;;;;;5095056;28;20528;-75
2023/05/15 08:27:25;;;;;;;9.57;7.87;;;19.70;80.00;;;;;;5091346;28;20461;-76
2023/05/15 08:29:53;;;;;;;8.20;7.50;;;19.70;79.60;;;;;;5093671;28;20493;-77
2023/05/15 08:32:20;;;;;;;9.10;8.20;;;19.70;79.60;;;;;;5092909;28;20474;-76
2023/05/15 08:34:47;;;;;;;6.47;5.87;;;19.80;79.90;;;;;;5093266;28;20469;-77
2023/05/15 08:37:14;;;;;;;7.07;6.57;;;19.80;79.50;;;;;;5092557;28;20497;-76
2023/05/15 08:39:47;;;;;;;6.10;5.60;;;19.80;79.60;;;;;;5093672;28;20469;-75
2023/05/15 08:42:22;;;;;;;7.37;6.77;;;19.80;79.70;;;;;;5092165;28;20481;-75
2023/05/15 08:44:49;;;;;;;6.53;5.57;;;19.70;79.30;;;;;;5092391;28;20958;-75
2023/05/15 08:47:17;;;;;;;6.10;5.47;;;19.70;79.50;;;;;;5092834;28;20469;-76
2023/05/15 08:49:55;;;;;;;8.00;7.43;;;19.70;79.80;;;;;;5093139;28;20474;-77
2023/05/15 08:52:23;;;;;;;8.10;7.37;;;19.80;80.30;;;;;;5092938;28;20469;-76
2023/05/15 08:54:50;;;;;;;7.53;6.77;;;19.70;80.50;;;;;;5093197;28;20534;-77
2023/05/15 08:57:19;;;;;;;6.70;6.10;;;19.80;80.70;;;;;;5092283;28;20467;-76
2023/05/15 08:59:46;;;;;;;9.00;6.70;;;19.80;81.00;;;;;;5092939;28;20485;-76
2023/05/15 09:02:14;;;;;;;6.40;5.80;;;19.80;81.00;;;;;;5092569;28;20538;-77
2023/05/15 09:04:41;;;;;;;6.50;5.93;;;19.80;81.10;;;;;;5093028;28;20480;-76
2023/05/15 09:07:10;;;;;;;6.70;6.07;;;19.80;81.00;;;;;;5092593;28;20472;-78
2023/05/15 09:09:37;;;;;;;6.87;6.37;;;19.80;81.20;;;;;;5093164;28;20457;-77
2023/05/15 09:12:05;;;;;;;6.20;5.60;;;19.80;82.20;;;;;;5092751;28;20524;-77
2023/05/15 09:14:33;;;;;;;6.13;5.53;;;19.90;81.80;;;;;;5092057;28;20453;-76
2023/05/15 09:17:00;;;;;;;6.77;6.20;;;19.90;81.50;;;;;;5092210;28;20476;-77
2023/05/15 09:19:28;;;;;;;7.13;5.93;;;19.90;81.60;;;;;;5092237;28;20493;-76
2023/05/15 09:21:55;;;;;;;6.27;5.70;;;19.90;81.60;;;;;;5092121;28;20469;-76
2023/05/15 09:24:23;;;;;;;6.07;5.50;;;19.90;81.70;;;;;;5091943;28;20954;-76
2023/05/15 09:27:03;;;;;;;5.50;5.13;;;20.00;81.70;;;;;;5092247;28;20473;-77
2023/05/15 09:29:31;;;;;;;8.10;6.27;;;20.00;81.70;;;;;;5091247;28;20941;-75
2023/05/15 09:32:06;;;;;;;6.50;5.90;;;20.00;81.70;;;;;;5092742;28;20473;-75
2023/05/15 09:34:35;;;;;;;7.50;6.80;;;20.10;81.60;;;;;;5094103;28;20464;-74
2023/05/15 09:37:04;;;;;;;7.37;6.77;;;20.10;81.50;;;;;;5096477;28;21003;-75
2023/05/15 09:39:31;;;;;;;8.23;7.43;;;20.20;81.70;;;;;;5095145;28;20495;-77
2023/05/15 09:42:06;;;;;;;7.90;6.23;;;20.20;81.40;;;;;;5095991;28;20461;-76
2023/05/15 09:44:34;;;;;;;9.70;8.80;;;20.20;80.90;;;;;;5096069;28;20457;-75
2023/05/15 09:47:05;;;;;;;9.83;9.03;;;20.30;80.60;;;;;;5096037;28;20500;-76
2023/05/15 09:49:32;;;;;;;9.20;8.30;;;20.40;80.50;;;;;;5095181;28;20504;-74
2023/05/15 09:52:00;;;;;;;8.10;7.27;;;20.40;80.60;;;;;;5095246;28;20465;-76
2023/05/15 09:54:28;;;;;;;7.23;5.90;;;20.50;79.90;;;;;;5095770;28;20465;-76
2023/05/15 09:56:56;;;;;;;8.07;7.37;;;20.50;79.90;;;;;;5095696;28;20803;-76
2023/05/15 09:59:23;;;;;;;7.60;7.00;;;20.50;80.00;;;;;;5095027;28;20502;-76
2023/05/15 10:01:52;;;;;;;7.33;6.73;;;20.50;80.30;;;;;;5095960;28;21233;-76
2023/05/15 10:04:21;;;;;;;8.33;6.17;;;20.50;80.20;;;;;;5094698;28;20477;-74
2023/05/15 10:06:49;;;;;;;6.73;6.20;;;20.60;80.70;;;;;;5095480;28;20485;-74
2023/05/15 10:09:16;;;;;;;7.10;6.40;;;20.60;80.80;;;;;;5095288;28;20962;-74
2023/05/15 10:11:51;;;;;;;6.70;6.20;;;20.60;81.00;;;;;;5095543;28;20457;-75
2023/05/15 10:14:20;;;;;;;6.40;5.90;;;20.60;80.80;;;;;;5095484;28;20962;-75
2023/05/15 10:16:47;;;;;;;5.60;5.20;;;20.60;80.40;;;;;;5095565;28;20457;-75
2023/05/15 10:19:14;;;;;;;6.30;5.80;;;20.60;79.50;;;;;;5095977;28;20526;-75
2023/05/15 10:21:42;;;;;;;6.23;5.73;;;20.60;78.80;;;;;;5095833;28;20454;-75
2023/05/15 10:24:11;;;;;;;6.20;5.70;;;20.60;78.60;;;;;;5095718;28;20473;-76
2023/05/15 10:26:39;;;;;;;5.83;5.33;;;20.60;79.20;;;;;;5095523;28;20454;-76
2023/05/15 10:29:12;;;;;;;5.80;5.30;;;20.60;80.40;;;;;;5096037;28;20465;-76
2023/05/15 10:31:40;;;;;;;6.30;5.70;;;20.60;80.80;;;;;;5095387;28;20457;-76
2023/05/15 10:34:07;;;;;;;5.27;4.77;;;20.60;81.80;;;;;;5095961;28;20489;-77
2023/05/15 10:36:36;;;;;;;6.10;5.30;;;20.50;82.40;;;;;;5095053;28;20473;-76
2023/05/15 10:39:06;;;;;;;5.57;5.17;;;20.60;82.70;;;;;;5095060;28;20508;-75
2023/05/15 10:41:37;;;;;;;10.10;6.43;;;20.50;81.90;;;;;;5094044;28;20569;-75
2023/05/15 10:44:04;;;;;;;5.90;5.40;;;20.50;81.90;;;;;;5095017;28;20489;-75
2023/05/15 10:46:33;;;;;;;5.10;4.70;;;20.50;81.80;;;;;;5100853;28;20533;-76
2023/05/15 10:49:00;;;;;;;5.50;5.00;;;20.50;82.00;;;;;;5097045;28;20477;-76
2023/05/15 10:51:29;;;;;;;6.80;6.10;;;20.40;82.50;;;;;;5096889;28;20523;-76
2023/05/15 10:53:57;;;;;;;6.17;5.67;;;20.50;83.70;;;;;;5095832;28;20461;-75
2023/05/15 10:56:30;;;;;;;5.13;4.70;;;20.50;84.70;;;;;;5093753;28;20465;-75
2023/05/15 10:58:58;;;;;;;5.83;5.40;;;20.50;86.10;;;;;;5094630;28;20469;-75
2023/05/15 11:01:30;;;;;;;5.80;5.40;;;20.40;87.50;;;;;;5095075;28;20981;-76
2023/05/15 11:04:08;;;;;;;5.50;5.00;;;20.30;90.10;;;;;;5094422;28;20934;-75
2023/05/15 11:06:36;;;;;;;5.47;5.00;;;20.30;90.70;;;;;;5094653;28;20469;-75
2023/05/15 11:09:37;;;;;;;5.27;4.90;;;20.30;91.00;;;;;;5090336;28;20870;-76
2023/05/15 11:12:08;;;;;;;5.40;5.00;;;20.30;91.70;;;;;;5099416;28;20805;-74
2023/05/15 11:14:39;;;;;;;4.40;4.10;;;20.30;91.70;;;;;;5094435;28;20477;-75
2023/05/15 11:17:08;;;;;;;5.10;4.43;;;20.40;91.80;;;;;;5094246;28;20479;-76
2023/05/15 11:19:39;;;;;;;4.80;4.40;;;20.40;91.90;;;;;;5096011;28;20469;-76
2023/05/15 11:22:20;;;;;;;5.70;5.20;;;20.40;91.50;;;;;;5094178;28;20497;-77
2023/05/15 11:24:57;;;;;;;6.40;3.93;;;20.50;89.30;;;;;;5094675;28;20461;-75
2023/05/15 11:27:28;;;;;;;4.63;4.33;;;20.50;85.80;;;;;;5093740;28;20526;-74
2023/05/15 11:30:13;;;;;;;4.80;4.50;;;20.50;84.70;;;;;;5094619;28;20524;-75
2023/05/15 11:32:52;;;;;;;5.20;4.30;;;20.60;83.00;;;;;;5094334;28;20981;-74
2023/05/15 11:35:21;;;;;;;4.33;4.03;;;20.60;82.00;;;;;;5094309;28;20481;-75
2023/05/15 11:37:56;;;;;;;4.60;4.20;;;20.70;82.00;;;;;;5093421;28;20461;-76
2023/05/15 11:40:25;;;;;;;5.60;4.90;;;20.80;81.40;;;;;;5092399;28;20473;-76
2023/05/15 11:43:10;;;;;;;3.93;3.63;;;20.80;81.30;;;;;;5094474;28;20469;-76
2023/05/15 11:45:39;;;;;;;4.10;3.80;;;20.80;81.50;;;;;;5093848;28;20462;-76
2023/05/15 11:48:13;;;;;;;6.77;4.80;;;20.90;81.50;;;;;;5094208;28;20465;-77
2023/05/15 11:50:41;;;;;;;4.40;4.10;;;20.90;80.80;;;;;;5089041;28;20458;-77
2023/05/15 11:53:09;;;;;;;5.67;4.67;;;20.90;79.70;;;;;;5075728;28;20474;-76
2023/05/15 11:55:39;;;;;;;5.13;4.73;;;20.90;79.30;;;;;;5083865;28;20462;-75
2023/05/15 11:58:12;;;;;;;5.20;4.70;;;21.00;79.40;;;;;;5075299;28;20470;-78
2023/05/15 12:00:40;;;;;;;4.37;4.07;;;21.00;78.60;;;;;;5080117;28;20469;-77
2023/05/15 12:03:11;;;;;;;5.00;4.60;;;21.00;78.50;;;;;;5073844;28;20506;-78
2023/05/15 12:05:40;;;;;;;4.53;4.23;;;21.00;78.70;;;;;;5070687;28;20854;-76
2023/05/15 12:08:11;;;;;;;5.30;4.50;;;21.00;78.80;;;;;;5072922;28;20468;-78
2023/05/15 12:10:41;;;;;;;4.27;3.87;;;21.10;78.20;;;;;;5073813;28;20479;-77
2023/05/15 12:13:11;;;;;;;4.77;4.47;;;21.10;78.00;;;;;;5073292;28;20967;-77
2023/05/15 12:15:39;;;;;;;4.50;4.20;;;21.20;77.00;;;;;;5072300;28;20475;-75
2023/05/15 12:18:07;;;;;;;5.47;4.97;;;21.30;76.00;;;;;;5073151;28;20470;-77
2023/05/15 12:20:36;;;;;;;4.70;4.30;;;21.30;75.70;;;;;;5073139;28;20836;-77
2023/05/15 12:23:04;;;;;;;4.23;3.87;;;21.30;75.20;;;;;;5073220;28;20573;-77
2023/05/15 12:25:32;;;;;;;4.30;3.90;;;21.40;73.90;;;;;;5072431;28;20815;-77
2023/05/15 12:28:02;;;;;;;3.77;3.27;;;21.50;72.80;;;;;;5073618;28;20940;-75
2023/05/15 12:30:32;;;;;;;3.30;3.00;;;21.50;72.30;;;;;;5072004;28;20467;-75
2023/05/15 12:33:02;;;;;;;4.57;3.90;;;21.60;71.00;;;;;;5073343;28;20466;-75
2023/05/15 12:35:31;;;;;;;3.87;3.47;;;21.70;71.00;;;;;;5072906;28;20967;-76
2023/05/15 12:37:58;;;;;;;3.93;3.30;;;21.70;70.10;;;;;;5072999;28;20789;-75
2023/05/15 12:40:26;;;;;;;3.70;3.43;;;21.80;70.10;;;;;;5072126;28;20969;-76
2023/05/15 12:42:55;;;;;;;3.63;3.43;;;21.80;69.40;;;;;;5072355;28;20458;-75
2023/05/15 12:45:26;;;;;;;3.20;2.93;;;21.80;69.40;;;;;;5072791;28;20474;-75
2023/05/15 12:47:58;;;;;;;4.00;3.70;;;21.90;70.40;;;;;;5072795;28;20989;-76
2023/05/15 12:50:29;;;;;;;4.30;3.40;;;21.90;69.20;;;;;;5073139;28;20812;-75